Data for 05/01/2006

Time Sea-Level Adjusted Pressure Absolute Pressure Temperature Relative Humidity Dew Point   
(mb) (inHg) (mb) (inHg) (C) (F) (%) (C) (F)
00:05 1020 30.12 849 25.07 5.5 41.9 50 -4 24.8
00:10 1020 30.12 849 25.07 5.4 41.7 52 -3.7 25.3
00:15 1020 30.12 849 25.07 5.1 41.3 54 -3.4 26
00:20 1020 30.12 849 25.07 5 41 53 -3.8 25.2
00:25 1020 30.12 849 25.07 4.9 40.8 57 -3 26.6
00:30 1020 30.12 849 25.07 4.5 40 56 -3.5 25.7
00:35 1020 30.12 849 25.07 4.4 40 56 -3.5 25.6
00:40 1020 30.12 849 25.07 4.4 39.9 59 -3 26.6
00:45 1020 30.12 849 25.07 3.8 38.8 63 -2.7 27.2
00:50 1020 30.12 849 25.07 3.6 38.5 63 -2.7 27.2
00:55 1020 30.12 849 25.07 3.7 38.7 64 -2.4 27.7
01:00 1020 30.12 849 25.07 3.4 38 70 -1.7 29
01:05 1020 30.12 849 25.07 2.8 37.1 72 -1.8 28.8
01:10 1020 30.12 849 25.07 2.6 36.8 70 -2.2 28
01:15 1020 30.12 849 25.07 2.8 37 69 -2.3 27.8
01:20 1020 30.12 849 25.07 2.8 37.1 71 -1.9 28.7
01:25 1020 30.12 849 25.07 2.6 36.7 72 -1.9 28.5
01:30 1020 30.12 849 25.07 2.6 36.7 71 -2.1 28.2
01:35 1020 30.12 849 25.07 2.6 36.7 71 -2.1 28.1
01:40 1020 30.12 849 25.07 2.4 36.3 72 -2.1 28.2
01:45 1020 30.12 849 25.07 2.3 36.1 73 -2.2 28.1
01:50 1020 30.12 849 25.07 2.2 35.9 72 -2.4 27.6
01:55 1019 30.09 849 25.07 2.4 36.3 71 -2.3 27.8
02:00 1019 30.09 849 25.07 2.4 36.4 71 -2.3 27.9
02:05 1019 30.09 849 25.07 2.3 36.1 71 -2.4 27.7
02:10 1019 30.09 849 25.07 2.1 35.7 72 -2.4 27.7
02:15 1019 30.09 849 25.07 2 35.7 72 -2.4 27.6
02:20 1019 30.09 848 25.04 2.1 35.7 72 -2.4 27.7
02:25 1019 30.09 848 25.04 1.9 35.4 73 -2.5 27.5
02:30 1019 30.09 848 25.04 1.8 35.2 73 -2.5 27.5
02:35 1019 30.09 848 25.04 1.7 35.1 73 -2.6 27.3
02:40 1019 30.09 848 25.04 1.6 34.9 74 -2.5 27.4
02:45 1019 30.09 848 25.04 1.4 34.5 76 -2.3 27.8
02:50 1019 30.09 848 25.04 1.1 34 77 -2.5 27.6
02:55 1019 30.09 848 25.04 1.2 34.2 77 -2.4 27.6
03:00 1019 30.09 848 25.04 1.2 34.1 77 -2.4 27.7
03:05 1019 30.09 848 25.04 1.1 33.9 78 -2.4 27.6
03:10 1019 30.09 848 25.04 1.1 33.9 77 -2.5 27.4
03:15 1019 30.09 848 25.04 1 33.8 77 -2.5 27.4
03:20 1019 30.09 848 25.04 1.1 34 76 -2.6 27.4
03:25 1019 30.09 848 25.04 1.3 34.3 76 -2.5 27.4
03:30 1019 30.09 848 25.04 1.2 34.1 76 -2.5 27.5
03:35 1019 30.09 848 25.04 0.8 33.5 78 -2.5 27.4
03:40 1019 30.09 848 25.04 0.5 33 80 -2.6 27.3
03:45 1019 30.09 848 25.04 0.4 32.7 81 -2.5 27.5
03:50 1019 30.09 848 25.04 0.3 32.6 80 -2.6 27.3
03:55 1019 30.09 848 25.04 0.4 32.8 80 -2.7 27.2
04:00 1019 30.09 848 25.04 0.6 33 79 -2.7 27.2
04:05 1019 30.09 848 25.04 0.5 32.9 79 -2.8 27
04:10 1019 30.09 848 25.04 0.6 33.1 77 -2.9 26.7
04:15 1019 30.09 848 25.04 0.8 33.4 76 -2.9 26.7
04:20 1019 30.09 848 25.04 0.9 33.7 75 -2.9 26.7
04:25 1019 30.09 848 25.04 0.8 33.5 75 -3.1 26.5
04:30 1019 30.09 848 25.04 0.9 33.6 75 -3.1 26.5
04:35 1019 30.09 848 25.04 0.8 33.4 77 -2.8 27
04:40 1019 30.09 848 25.04 0.4 32.7 79 -2.8 27
04:45 1019 30.09 848 25.04 0.1 32.2 81 -2.8 26.9
04:50 1019 30.09 848 25.04 -0 31.9 81 -2.8 26.9
04:55 1019 30.09 848 25.04 -0.2 31.7 82 -2.9 26.8
05:00 1019 30.09 848 25.04 -0.3 31.5 83 -2.8 26.9
05:05 1019 30.09 848 25.04 -0.3 31.4 82 -2.9 26.7
05:10 1019 30.09 848 25.04 -0.3 31.4 83 -2.9 26.7
05:15 1019 30.09 848 25.04 -0.2 31.7 82 -3 26.7
05:20 1018 30.06 848 25.04 -0 31.9 80 -3 26.6
05:25 1018 30.06 848 25.04 0 32.1 79 -3.3 26.1
05:30 1018 30.06 848 25.04 0 32.1 79 -3.2 26.3
05:35 1018 30.06 848 25.04 -0.1 31.9 80 -3.1 26.3
05:40 1018 30.06 848 25.04 -0 31.9 81 -2.9 26.7
05:45 1018 30.06 848 25.04 -0.2 31.7 82 -2.9 26.8
05:50 1018 30.06 847 25.01 -0.3 31.5 82 -3 26.6
05:55 1018 30.06 847 25.01 -0.2 31.6 81 -3 26.6
06:00 1018 30.06 847 25.01 -0.2 31.6 82 -3 26.6
06:05 1018 30.06 847 25.01 -0.3 31.4 82 -3 26.6
06:10 1018 30.06 847 25.01 -0.4 31.3 82 -3.2 26.3
06:15 1018 30.06 847 25.01 -0.4 31.3 82 -3.1 26.5
06:20 1018 30.06 847 25.01 -0.6 30.9 83 -3.1 26.4
06:25 1018 30.06 847 25.01 -0.8 30.5 85 -3.1 26.4
06:30 1018 30.06 847 25.01 -0.8 30.6 84 -3.1 26.4
06:35 1018 30.06 847 25.01 -0.7 30.8 84 -3.1 26.4
06:40 1018 30.06 847 25.01 -0.6 30.9 83 -3.2 26.2
06:45 1018 30.06 847 25.01 -0.5 31.2 82 -3.2 26.3
06:50 1018 30.06 847 25.01 -0.3 31.5 81 -3.2 26.2
06:55 1018 30.06 847 25.01 -0.3 31.4 81 -3.3 26.1
07:00 1018 30.06 847 25.01 -0.1 31.8 79 -3.3 26.1
07:05 1018 30.06 847 25.01 0.1 32.3 78 -3.2 26.2
07:10 1018 30.06 847 25.01 0.4 32.8 76 -3.2 26.2
07:15 1018 30.06 847 25.01 0.8 33.5 75 -3.1 26.3
07:20 1018 30.06 847 25.01 1.2 34.2 73 -3 26.5
07:25 1018 30.06 847 25.01 1.4 34.5 73 -3 26.6
07:30 1018 30.06 847 25.01 1.7 35.1 71 -3.1 26.5
07:35 1018 30.06 847 25.01 2.2 35.9 69 -2.9 26.8
07:40 1018 30.06 847 25.01 2 35.5 71 -2.7 27.1
07:45 1018 30.06 847 25.01 2 35.5 71 -2.7 27.1
07:50 1018 30.06 847 25.01 2.4 36.3 69 -2.6 27.3
07:55 1018 30.06 847 25.01 2.8 37 68 -2.5 27.5
08:00 1018 30.06 847 25.01 3.4 38.1 66 -2.3 27.8
08:05 1018 30.06 847 25.01 3.7 38.6 66 -2 28.4
08:10 1018 30.06 847 25.01 4.1 39.3 64 -2.1 28.2
08:15 1018 30.06 847 25.01 4.8 40.6 60 -2.3 27.9
08:20 1018 30.06 847 25.01 4.8 40.7 63 -1.5 29.2
08:25 1018 30.06 847 25.01 4.9 40.9 61 -1.9 28.7
08:30 1018 30.06 847 25.01 5.4 41.7 61 -1.6 29.1
08:35 1018 30.06 847 25.01 5.9 42.6 58 -1.8 28.7
08:40 1018 30.06 847 25.01 5.9 42.6 59 -1.4 29.4
08:45 1018 30.06 847 25.01 6.1 42.9 58 -1.5 29.3
08:50 1018 30.06 847 25.01 6.4 43.5 55 -1.9 28.6
08:55 1017 30.03 847 25.01 7.2 44.9 53 -1.7 29
09:00 1017 30.03 847 25.01 6.7 44 57 -1.3 29.7
09:05 1017 30.03 847 25.01 6.4 43.5 55 -2 28.5
09:10 1017 30.03 847 25.01 6.8 44.2 53 -2.1 28.1
09:15 1017 30.03 847 25.01 7.3 45.2 50 -2.5 27.5
09:20 1017 30.03 846 24.98 7.9 46.2 46 -3 26.5
09:25 1017 30.03 846 24.98 8.2 46.7 47 -2.5 27.6
09:30 1017 30.03 846 24.98 8.5 47.3 45 -2.9 26.8
09:35 1017 30.03 846 24.98 8.7 47.7 43 -3.1 26.5
09:40 1017 30.03 846 24.98 8.1 46.5 46 -2.7 27.1
09:45 1017 30.03 846 24.98 8.1 46.7 45 -3 26.6
09:50 1017 30.03 846 24.98 8.4 47.1 43 -3.4 25.9
09:55 1017 30.03 846 24.98 9 48.2 42 -3.2 26.2
10:00 1017 30.03 846 24.98 9.3 48.8 42 -3 26.6
10:05 1017 30.03 846 24.98 9.4 48.9 40 -3.5 25.7
10:10 1017 30.03 846 24.98 8.9 48 41 -3.8 25.2
10:15 1017 30.03 846 24.98 9.1 48.4 41 -3.4 26
10:20 1017 30.03 846 24.98 9 48.2 43 -2.8 27
10:25 1017 30.03 846 24.98 8.9 48 43 -3 26.5
10:30 1017 30.03 846 24.98 9.6 49.3 41 -3.1 26.5
10:35 1017 30.03 846 24.98 9.6 49.3 43 -2.4 27.7
10:40 1016 30 846 24.98 9.2 48.5 40 -3.6 25.5
10:45 1016 30 846 24.98 8.9 48.1 41 -3.7 25.3
10:50 1016 30 846 24.98 9.4 49 39 -3.7 25.4
10:55 1016 30 846 24.98 10.9 51.6 34 -4.2 24.5
11:00 1016 30 846 24.98 9.8 49.7 39 -3.6 25.5
11:05 1016 30 845 24.95 9.7 49.5 38 -3.9 25
11:10 1016 30 845 24.95 9.9 49.7 39 -3.4 25.8
11:15 1016 30 845 24.95 10.9 51.7 35 -3.8 25.1
11:20 1016 30 845 24.95 11.3 52.4 34 -4 24.8
11:25 1016 30 845 24.95 12.2 53.9 32 -3.9 25
11:30 1016 30 845 24.95 12.8 55 31 -4.1 24.7
11:35 1016 30 845 24.95 12.7 54.9 32 -3.6 25.5
11:40 1016 30 845 24.95 12.4 54.4 30 -4.4 24.1
11:45 1016 30 845 24.95 11.8 53.3 32 -4.5 23.9
11:50 1016 30 845 24.95 12.5 54.4 29 -4.9 23.3
11:55 1015 29.97 845 24.95 13.3 55.9 29 -4.5 23.9
12:00 1015 29.97 845 24.95 13.5 56.3 29 -4.1 24.5
12:05 1015 29.97 845 24.95 13 55.4 29 -4.5 24
12:10 1015 29.97 844 24.92 11.6 52.9 31 -4.7 23.5
12:15 1015 29.97 844 24.92 12.4 54.2 30 -4.8 23.3
12:20 1015 29.97 844 24.92 13.8 56.9 28 -4.2 24.4
12:25 1015 29.97 844 24.92 14.3 57.7 27 -4.3 24.3
12:30 1015 29.97 844 24.92 14.5 58 27 -4.3 24.2
12:35 1015 29.97 844 24.92 14.8 58.7 27 -3.9 24.9
12:40 1015 29.97 844 24.92 14.1 57.4 28 -4.1 24.5
12:45 1015 29.97 844 24.92 13.8 56.8 27 -4.7 23.5
12:50 1015 29.97 844 24.92 13.8 56.8 28 -4.3 24.2
12:55 1015 29.97 844 24.92 14.1 57.5 26 -5.1 22.9
13:00 1015 29.97 844 24.92 14 57.1 25 -5.5 22
13:05 1014 29.94 844 24.92 14.7 58.4 26 -4.6 23.7
13:10 1014 29.94 844 24.92 15.3 59.5 26 -4.2 24.4
13:15 1014 29.94 843 24.89 15.6 60 25 -4.5 23.8
13:20 1014 29.94 843 24.89 16.4 61.6 23 -4.9 23.1
13:25 1014 29.94 843 24.89 15.4 59.7 26 -3.9 25
13:30 1014 29.94 843 24.89 14.8 58.7 25 -4.9 23.3
13:35 1014 29.94 843 24.89 14.7 58.4 26 -4.6 23.7
13:40 1014 29.94 843 24.89 16 60.7 23 -5 23.1
13:45 1014 29.94 843 24.89 16.8 62.2 23 -4.1 24.5
13:50 1014 29.94 843 24.89 16.1 61.1 26 -3.5 25.7
13:55 1014 29.94 843 24.89 16.4 61.6 23 -4.6 23.8
14:00 1013 29.91 843 24.89 16.6 61.9 24 -4.2 24.4
14:05 1013 29.91 843 24.89 16.6 61.8 23 -4.3 24.3
14:10 1013 29.91 843 24.89 17.2 63 22 -4.3 24.2
14:15 1013 29.91 842 24.86 17 62.7 23 -4.3 24.3
14:20 1013 29.91 842 24.86 17.4 63.3 22 -4.2 24.5
14:25 1013 29.91 842 24.86 16.9 62.4 25 -3.3 26
14:30 1013 29.91 842 24.86 15.1 59.2 27 -3.6 25.6
14:35 1013 29.91 842 24.86 15.2 59.3 25 -4.4 24.1
14:40 1013 29.91 842 24.86 15.8 60.4 25 -3.9 25
14:45 1013 29.91 842 24.86 15.1 59.1 26 -4.2 24.4
14:50 1013 29.91 842 24.86 15.5 60 24 -5 22.9
14:55 1013 29.91 842 24.86 16.3 61.3 23 -4.8 23.4
15:00 1013 29.91 842 24.86 16.2 61.1 24 -4.4 24
15:05 1013 29.91 842 24.86 15.3 59.5 25 -4.8 23.4
15:10 1013 29.91 842 24.86 15.5 59.9 24 -4.9 23.1
15:15 1012 29.88 842 24.86 16 60.7 24 -4.3 24.3
15:20 1012 29.88 842 24.86 16.3 61.3 24 -4.3 24.3
15:25 1012 29.88 842 24.86 16.1 61 25 -4 24.8
15:30 1012 29.88 841 24.83 16.7 62.1 23 -4.5 23.9
15:35 1012 29.88 841 24.83 16.3 61.4 24 -4.3 24.3
15:40 1012 29.88 841 24.83 15.9 60.6 24 -4.4 24.2
15:45 1012 29.88 841 24.83 15.8 60.4 23 -5.1 22.8
15:50 1012 29.88 841 24.83 15.9 60.7 24 -4.8 23.4
15:55 1012 29.88 841 24.83 16.3 61.3 22 -5.3 22.5
16:00 1012 29.88 841 24.83 15.6 60 23 -5.3 22.4
16:05 1012 29.88 841 24.83 15.3 59.5 23 -5.9 21.4
16:10 1012 29.88 841 24.83 15.4 59.8 23 -5.5 22
16:15 1012 29.88 841 24.83 15.6 60 24 -4.9 23.1
16:20 1012 29.88 841 24.83 15.8 60.5 23 -5.1 22.8
16:25 1012 29.88 841 24.83 16.5 61.6 23 -4.8 23.3
16:30 1011 29.85 841 24.83 16.9 62.3 21 -5.4 22.2
16:35 1011 29.85 841 24.83 16.2 61.2 23 -5.1 22.9
16:40 1011 29.85 841 24.83 15.9 60.6 23 -5.4 22.3
16:45 1011 29.85 840 24.81 15.6 60 23 -5.4 22.2
16:50 1011 29.85 840 24.81 16.2 61.2 22 -5.5 22.1
16:55 1011 29.85 840 24.81 16.4 61.6 23 -4.8 23.4
17:00 1011 29.85 840 24.81 16.7 62.1 22 -4.8 23.3
17:05 1011 29.85 840 24.81 16 60.9 22 -5.5 22.2
17:10 1011 29.85 840 24.81 15.6 60 22 -5.9 21.4
17:15 1011 29.85 840 24.81 15.4 59.7 23 -5.6 22
17:20 1011 29.85 840 24.81 15.6 60.1 22 -5.8 21.6
17:25 1011 29.85 840 24.81 15.4 59.7 22 -6.2 20.9
17:30 1011 29.85 840 24.81 15.8 60.5 22 -5.9 21.4
17:35 1011 29.85 840 24.81 16 60.8 25 -4 24.9
17:40 1011 29.85 840 24.81 16.2 61.2 20 -7 19.4
17:45 1011 29.85 840 24.81 16.3 61.4 21 -6.1 21
17:50 1011 29.85 840 24.81 16.1 61 20 -6.8 19.8
17:55 1011 29.85 840 24.81 16 60.8 21 -6.1 21
18:00 1010 29.83 840 24.81 16.2 61.2 18 -8 17.6
18:05 1010 29.83 840 24.81 16.4 61.4 20 -6.7 19.9
18:10 1010 29.83 840 24.81 16.3 61.4 21 -6 21.2
18:15 1010 29.83 840 24.81 16.4 61.5 21 -6.1 21.1
18:20 1010 29.83 840 24.81 16.3 61.4 21 -5.9 21.3
18:25 1010 29.83 840 24.81 16 60.8 22 -5.8 21.6
18:30 1010 29.83 840 24.81 15.8 60.4 23 -5.2 22.6
18:35 1010 29.83 840 24.81 15.6 60.2 23 -5.6 21.9
18:40 1010 29.83 840 24.81 15.7 60.3 23 -5.4 22.3
18:45 1010 29.83 840 24.81 15.4 59.8 23 -5.4 22.3
18:50 1010 29.83 840 24.81 15.1 59.1 25 -4.8 23.4
18:55 1010 29.83 840 24.81 14.8 58.7 24 -5.2 22.6
19:00 1010 29.83 840 24.81 14.8 58.6 26 -4.4 24.1
19:05 1011 29.85 840 24.81 14.7 58.4 24 -5.8 21.6
19:10 1011 29.85 840 24.81 15 59 23 -5.7 21.7
19:15 1010 29.83 839 24.78 15.2 59.3 21 -6.9 19.5
19:20 1010 29.83 839 24.78 15 59 24 -5.2 22.7
19:25 1010 29.83 839 24.78 14.7 58.5 25 -5 23
19:30 1010 29.83 839 24.78 14.8 58.6 22 -6.6 20.2
19:35 1010 29.83 839 24.78 15.3 59.5 23 -5.9 21.4
19:40 1010 29.83 839 24.78 15.1 59.1 25 -5 23.1
19:45 1010 29.83 839 24.78 14.8 58.6 27 -4 24.9
19:50 1010 29.83 839 24.78 14.4 57.8 28 -3.9 24.9
19:55 1010 29.83 839 24.78 13.9 57 27 -4.7 23.5
20:00 1010 29.83 839 24.78 13.8 56.9 27 -5 23.1
20:05 1010 29.83 839 24.78 13.7 56.6 29 -3.9 25
20:10 1010 29.83 839 24.78 13.6 56.4 28 -4.6 23.7
20:15 1010 29.83 839 24.78 13.5 56.3 29 -4 24.8
20:20 1010 29.83 839 24.78 13.3 56 30 -3.9 25.1
20:25 1010 29.83 839 24.78 13.2 55.8 30 -4 24.8
20:30 1010 29.83 840 24.81 13.2 55.7 29 -4.2 24.4
20:35 1010 29.83 840 24.81 13.1 55.5 31 -3.7 25.3
20:40 1011 29.85 840 24.81 12.8 55.1 32 -3.6 25.6
20:45 1011 29.85 840 24.81 12.5 54.4 31 -4 24.9
20:50 1011 29.85 840 24.81 12 53.5 31 -4.5 23.9
20:55 1011 29.85 840 24.81 11.6 53 32 -4.6 23.8
21:00 1011 29.85 840 24.81 11.3 52.4 32 -4.7 23.6
21:05 1011 29.85 841 24.83 11 51.8 33 -4.7 23.5
21:10 1012 29.88 841 24.83 10.6 51 34 -4.8 23.4
21:15 1012 29.88 841 24.83 10.3 50.5 34 -4.7 23.6
21:20 1012 29.88 841 24.83 10 49.9 36 -4.4 24
21:25 1012 29.88 841 24.83 9.7 49.5 37 -4.1 24.6
21:30 1012 29.88 841 24.83 9.4 48.9 38 -4 24.8
21:35 1013 29.91 842 24.86 9.2 48.6 39 -3.9 24.9
21:40 1013 29.91 842 24.86 9.1 48.3 40 -3.8 25.1
21:45 1013 29.91 842 24.86 8.9 48.1 40 -3.9 25
21:50 1013 29.91 842 24.86 8.8 47.9 40 -4 24.8
21:55 1013 29.91 842 24.86 8.8 47.8 40 -4 24.8
22:00 1013 29.91 843 24.89 8.7 47.6 41 -4 24.8
22:05 1014 29.94 843 24.89 8.6 47.5 40 -4.1 24.6
22:10 1014 29.94 843 24.89 8.5 47.4 40 -4.2 24.5
22:15 1014 29.94 843 24.89 8.5 47.2 41 -4 24.8
22:20 1014 29.94 843 24.89 8.3 46.9 41 -4.2 24.5
22:25 1014 29.94 844 24.92 8.1 46.6 42 -4.1 24.6
22:30 1014 29.94 844 24.92 8 46.5 42 -4 24.9
22:35 1015 29.97 844 24.92 7.9 46.2 43 -3.9 25.1
22:40 1015 29.97 844 24.92 7.8 46.1 43 -3.8 25.1
22:45 1015 29.97 844 24.92 7.7 45.8 44 -3.8 25.2
22:50 1015 29.97 844 24.92 7.6 45.7 45 -3.6 25.6
22:55 1015 29.97 844 24.92 7.5 45.4 46 -3.5 25.7
23:00 1015 29.97 844 24.92 7.3 45.1 47 -3.4 25.9
23:05 1015 29.97 844 24.92 6.8 44.2 50 -2.9 26.8
23:10 1015 29.97 844 24.92 6.3 43.4 51 -3.1 26.4
23:15 1015 29.97 844 24.92 6.3 43.3 50 -3.3 26
23:20 1015 29.97 844 24.92 6.5 43.6 49 -3.3 26
23:25 1015 29.97 844 24.92 6.5 43.7 49 -3.3 26.1
23:30 1015 29.97 844 24.92 6.4 43.6 49 -3.5 25.8
23:35 1015 29.97 844 24.92 6.5 43.6 49 -3.5 25.7
23:40 1015 29.97 844 24.92 6.4 43.5 49 -3.5 25.7
23:45 1015 29.97 844 24.92 6.4 43.4 49 -3.5 25.7
23:50 1015 29.97 844 24.92 6.3 43.4 50 -3.4 25.9
23:55 1015 29.97 844 24.92 6.3 43.3 49 -3.7 25.3
24:00 1015 29.97 844 24.92 6.4 43.5 49 -3.6 25.5